UAL1894 KOKC-KDEN
Flight info
| Callsign | UAL1894 |
|---|---|
| Flight time | 1h 13m |
| Altitude | 38000 |
| Route | STPHN3 ZEEWE KK36A HALEN NIIXX4 |
| Aircraft | B738/M-SDE2E3FGHIRWXY/LB1 |
Departure
| Time | 2026-04-16 02:46 |
|---|---|
| Airport | OKC Will Rogers World Airport (KOKC) |
Arrival
| Time | 2026-04-16 04:00 |
|---|---|
| Airport | Denver International Airport (KDEN) |
| Time | Latitude | Longitude | Altitude | Speed | Heading |
|---|---|---|---|---|---|
| 2026-04-16 02:26 | 35.39475 | -97.59849 | 1293 ft | 0 kts | 360° |
| 2026-04-16 02:37 | 35.39472 | -97.59849 | 1293 ft | 2 kts | 360° |
| 2026-04-16 02:37 | 35.39457 | -97.59849 | 1293 ft | 2 kts | 359° |
| 2026-04-16 02:37 | 35.39442 | -97.59849 | 1293 ft | 2 kts | 360° |
| 2026-04-16 02:37 | 35.39426 | -97.59850 | 1293 ft | 2 kts | 28° |
| 2026-04-16 02:38 | 35.39416 | -97.59863 | 1293 ft | 2 kts | 67° |
| 2026-04-16 02:38 | 35.39414 | -97.59882 | 1293 ft | 2 kts | 97° |
| 2026-04-16 02:38 | 35.39415 | -97.59898 | 1293 ft | 0 kts | 87° |
| 2026-04-16 02:40 | 35.39415 | -97.59887 | 1293 ft | 5 kts | 87° |
| 2026-04-16 02:41 | 35.39414 | -97.59808 | 1293 ft | 10 kts | 90° |
| 2026-04-16 02:41 | 35.39399 | -97.59720 | 1293 ft | 11 kts | 110° |
| 2026-04-16 02:41 | 35.39382 | -97.59622 | 1293 ft | 12 kts | 96° |
| 2026-04-16 02:41 | 35.39381 | -97.59512 | 1293 ft | 13 kts | 89° |
| 2026-04-16 02:42 | 35.39381 | -97.59385 | 1293 ft | 15 kts | 90° |
| 2026-04-16 02:42 | 35.39386 | -97.59258 | 1293 ft | 13 kts | 72° |
| 2026-04-16 02:42 | 35.39464 | -97.59189 | 1293 ft | 14 kts | 59° |
| 2026-04-16 02:42 | 35.39497 | -97.59068 | 1291 ft | 17 kts | 24° |
| 2026-04-16 02:43 | 35.39627 | -97.59062 | 1290 ft | 19 kts | 359° |
| 2026-04-16 02:43 | 35.39771 | -97.59061 | 1289 ft | 21 kts | 0° |
| 2026-04-16 02:43 | 35.39928 | -97.59062 | 1288 ft | 22 kts | 359° |
| 2026-04-16 02:43 | 35.40088 | -97.59062 | 1288 ft | 23 kts | 359° |
| 2026-04-16 02:44 | 35.40249 | -97.59062 | 1288 ft | 17 kts | 359° |
| 2026-04-16 02:44 | 35.40371 | -97.59055 | 1288 ft | 15 kts | 27° |
| 2026-04-16 02:44 | 35.40388 | -97.58936 | 1286 ft | 14 kts | 105° |
| 2026-04-16 02:44 | 35.40334 | -97.58893 | 1285 ft | 0 kts | 181° |
| 2026-04-16 02:45 | 35.40278 | -97.58894 | 1285 ft | 32 kts | 180° |
| 2026-04-16 02:45 | 35.39830 | -97.58894 | 1285 ft | 94 kts | 180° |
| 2026-04-16 02:45 | 35.38963 | -97.58893 | 1293 ft | 149 kts | 179° |
| 2026-04-16 02:46 | 35.37855 | -97.58888 | 1651 ft | 158 kts | 180° |
| 2026-04-16 02:46 | 35.36752 | -97.58928 | 1776 ft | 170 kts | 188° |
| 2026-04-16 02:46 | 35.35660 | -97.59396 | 2473 ft | 168 kts | 211° |
| 2026-04-16 02:46 | 35.34728 | -97.60284 | 2975 ft | 173 kts | 213° |
| 2026-04-16 02:47 | 35.33586 | -97.60857 | 3362 ft | 185 kts | 195° |
| 2026-04-16 02:47 | 35.32343 | -97.61481 | 3655 ft | 204 kts | 220° |
| 2026-04-16 02:47 | 35.31620 | -97.63010 | 4033 ft | 222 kts | 259° |
| 2026-04-16 02:47 | 35.31794 | -97.64964 | 4455 ft | 241 kts | 287° |
| 2026-04-16 02:48 | 35.32451 | -97.66879 | 4980 ft | 253 kts | 292° |
| 2026-04-16 02:48 | 35.33181 | -97.68909 | 5584 ft | 261 kts | 291° |
| 2026-04-16 02:48 | 35.33864 | -97.70934 | 6329 ft | 263 kts | 290° |
| 2026-04-16 02:48 | 35.34536 | -97.73008 | 7129 ft | 264 kts | 290° |
| 2026-04-16 02:49 | 35.35204 | -97.75111 | 7925 ft | 265 kts | 289° |
| 2026-04-16 02:49 | 35.35863 | -97.77196 | 8705 ft | 267 kts | 289° |
| 2026-04-16 02:49 | 35.36537 | -97.79325 | 9512 ft | 269 kts | 289° |
| 2026-04-16 02:49 | 35.37215 | -97.81461 | 10310 ft | 271 kts | 289° |
| 2026-04-16 02:50 | 35.37908 | -97.83643 | 10846 ft | 284 kts | 289° |
| 2026-04-16 02:50 | 35.38644 | -97.85964 | 11343 ft | 298 kts | 289° |
| 2026-04-16 02:50 | 35.39415 | -97.88393 | 11800 ft | 313 kts | 289° |
| 2026-04-16 02:50 | 35.40217 | -97.90919 | 12291 ft | 327 kts | 289° |
| 2026-04-16 02:51 | 35.41047 | -97.93530 | 13055 ft | 331 kts | 288° |
| 2026-04-16 02:51 | 35.41887 | -97.96171 | 13857 ft | 335 kts | 288° |
| 2026-04-16 02:51 | 35.42726 | -97.98814 | 14631 ft | 339 kts | 288° |
| 2026-04-16 02:51 | 35.43582 | -98.01510 | 15440 ft | 342 kts | 287° |
| 2026-04-16 02:52 | 35.44442 | -98.04227 | 16231 ft | 345 kts | 286° |
| 2026-04-16 02:52 | 35.45309 | -98.06975 | 16980 ft | 349 kts | 285° |
| 2026-04-16 02:52 | 35.46179 | -98.09743 | 17718 ft | 351 kts | 284° |
| 2026-04-16 02:52 | 35.46962 | -98.12558 | 18527 ft | 349 kts | 280° |
| 2026-04-16 02:53 | 35.47538 | -98.15472 | 19100 ft | 353 kts | 275° |
| 2026-04-16 02:53 | 35.47914 | -98.18441 | 19767 ft | 355 kts | 272° |
| 2026-04-16 02:53 | 35.48195 | -98.21451 | 20403 ft | 358 kts | 271° |
| 2026-04-16 02:53 | 35.48446 | -98.24500 | 21093 ft | 360 kts | 270° |
| 2026-04-16 02:54 | 35.48694 | -98.27565 | 21758 ft | 362 kts | 270° |
| 2026-04-16 02:54 | 35.48945 | -98.30626 | 22305 ft | 367 kts | 270° |
| 2026-04-16 02:54 | 35.49212 | -98.33789 | 22879 ft | 371 kts | 270° |
| 2026-04-16 02:54 | 35.49483 | -98.36933 | 23522 ft | 373 kts | 270° |
| 2026-04-16 02:55 | 35.49758 | -98.40092 | 24035 ft | 378 kts | 270° |
| 2026-04-16 02:55 | 35.50043 | -98.43327 | 24614 ft | 381 kts | 270° |
| 2026-04-16 02:55 | 35.50326 | -98.46542 | 25063 ft | 378 kts | 270° |
| 2026-04-16 02:55 | 35.50612 | -98.49798 | 25301 ft | 388 kts | 270° |
| 2026-04-16 02:56 | 35.50899 | -98.53072 | 25899 ft | 389 kts | 269° |
| 2026-04-16 02:56 | 35.51188 | -98.56374 | 26446 ft | 391 kts | 270° |
| 2026-04-16 02:56 | 35.51478 | -98.59704 | 26900 ft | 396 kts | 270° |
| 2026-04-16 02:56 | 35.51770 | -98.63071 | 27442 ft | 398 kts | 269° |
| 2026-04-16 02:57 | 35.52065 | -98.66475 | 27929 ft | 401 kts | 269° |
| 2026-04-16 02:57 | 35.52360 | -98.69887 | 28440 ft | 403 kts | 269° |
| 2026-04-16 02:57 | 35.52654 | -98.73325 | 28786 ft | 409 kts | 269° |
| 2026-04-16 02:57 | 35.52952 | -98.76811 | 29356 ft | 410 kts | 269° |
| 2026-04-16 02:58 | 35.53253 | -98.80305 | 29804 ft | 413 kts | 268° |
| 2026-04-16 02:58 | 35.53551 | -98.83798 | 30247 ft | 415 kts | 269° |
| 2026-04-16 02:58 | 35.53853 | -98.87355 | 30607 ft | 419 kts | 269° |
| 2026-04-16 02:58 | 35.54153 | -98.90877 | 31174 ft | 417 kts | 269° |
| 2026-04-16 02:59 | 35.54458 | -98.94425 | 31799 ft | 414 kts | 269° |
| 2026-04-16 02:59 | 35.54757 | -98.97907 | 32432 ft | 410 kts | 269° |
| 2026-04-16 02:59 | 35.55051 | -99.01350 | 33020 ft | 407 kts | 269° |
| 2026-04-16 02:59 | 35.55345 | -99.04826 | 33516 ft | 405 kts | 269° |
| 2026-04-16 03:00 | 35.55632 | -99.08257 | 33917 ft | 406 kts | 269° |
| 2026-04-16 03:00 | 35.55998 | -99.11732 | 34316 ft | 408 kts | 272° |
| 2026-04-16 03:00 | 35.56605 | -99.15125 | 34660 ft | 414 kts | 278° |
| 2026-04-16 03:00 | 35.57552 | -99.18517 | 35010 ft | 421 kts | 284° |
| 2026-04-16 03:01 | 35.58839 | -99.21816 | 35399 ft | 426 kts | 290° |
| 2026-04-16 03:01 | 35.60389 | -99.24919 | 35778 ft | 430 kts | 295° |
| 2026-04-16 03:01 | 35.63864 | -99.31020 | 36125 ft | 434 kts | 297° |
| 2026-04-16 03:02 | 35.65622 | -99.34091 | 36534 ft | 432 kts | 297° |
| 2026-04-16 03:02 | 35.67332 | -99.37134 | 36898 ft | 431 kts | 296° |
| 2026-04-16 03:02 | 35.69029 | -99.40215 | 37244 ft | 430 kts | 296° |
| 2026-04-16 03:02 | 35.70677 | -99.43265 | 37574 ft | 429 kts | 295° |
| 2026-04-16 03:03 | 35.72321 | -99.46348 | 37886 ft | 428 kts | 295° |
| 2026-04-16 03:03 | 35.73936 | -99.49413 | 37949 ft | 431 kts | 295° |
| 2026-04-16 03:03 | 35.77192 | -99.55650 | 37956 ft | 428 kts | 295° |
| 2026-04-16 03:04 | 35.80402 | -99.61826 | 37947 ft | 425 kts | 295° |
| 2026-04-16 03:04 | 35.83596 | -99.68015 | 37949 ft | 428 kts | 294° |
| 2026-04-16 03:05 | 35.86784 | -99.74194 | 37960 ft | 427 kts | 294° |
| 2026-04-16 03:05 | 35.89986 | -99.80416 | 37962 ft | 428 kts | 295° |
| 2026-04-16 03:06 | 35.93193 | -99.86654 | 37969 ft | 428 kts | 295° |
| 2026-04-16 03:07 | 35.97979 | -99.95946 | 37954 ft | 429 kts | 296° |
| 2026-04-16 03:07 | 36.01629 | -100.01863 | 37961 ft | 438 kts | 306° |
| 2026-04-16 03:08 | 36.06042 | -100.07175 | 37956 ft | 443 kts | 311° |
| 2026-04-16 03:08 | 36.10665 | -100.12274 | 37950 ft | 443 kts | 311° |
| 2026-04-16 03:09 | 36.15304 | -100.17374 | 37958 ft | 443 kts | 311° |
| 2026-04-16 03:09 | 36.19876 | -100.22463 | 37956 ft | 442 kts | 311° |
| 2026-04-16 03:10 | 36.24421 | -100.27578 | 37961 ft | 443 kts | 311° |
| 2026-04-16 03:10 | 36.28988 | -100.32753 | 37958 ft | 441 kts | 311° |
| 2026-04-16 03:11 | 36.33501 | -100.37886 | 37967 ft | 442 kts | 311° |
| 2026-04-16 03:11 | 36.38022 | -100.43040 | 37965 ft | 441 kts | 311° |
| 2026-04-16 03:12 | 36.42551 | -100.48215 | 37969 ft | 442 kts | 311° |
| 2026-04-16 03:12 | 36.47082 | -100.53402 | 37966 ft | 443 kts | 311° |
| 2026-04-16 03:13 | 36.51587 | -100.58563 | 37963 ft | 443 kts | 312° |
| 2026-04-16 03:13 | 36.56099 | -100.63743 | 37956 ft | 441 kts | 311° |
| 2026-04-16 03:14 | 36.60618 | -100.68939 | 37955 ft | 440 kts | 311° |
| 2026-04-16 03:14 | 36.65130 | -100.74136 | 37953 ft | 440 kts | 311° |
| 2026-04-16 03:15 | 36.69609 | -100.79305 | 37955 ft | 440 kts | 311° |
| 2026-04-16 03:15 | 36.74116 | -100.84512 | 37953 ft | 440 kts | 311° |
| 2026-04-16 03:16 | 36.78606 | -100.89709 | 37948 ft | 440 kts | 311° |
| 2026-04-16 03:16 | 36.83091 | -100.94909 | 37954 ft | 442 kts | 312° |
| 2026-04-16 03:17 | 36.87597 | -101.00146 | 37955 ft | 441 kts | 312° |
| 2026-04-16 03:17 | 36.92070 | -101.05347 | 37953 ft | 438 kts | 312° |
| 2026-04-16 03:18 | 36.96517 | -101.10525 | 37961 ft | 437 kts | 312° |
| 2026-04-16 03:18 | 37.00955 | -101.15710 | 37962 ft | 439 kts | 312° |
| 2026-04-16 03:19 | 37.05435 | -101.20948 | 37973 ft | 438 kts | 312° |
| 2026-04-16 03:19 | 37.09849 | -101.26118 | 37962 ft | 437 kts | 313° |
| 2026-04-16 03:20 | 37.14286 | -101.31328 | 37935 ft | 437 kts | 312° |
| 2026-04-16 03:20 | 37.18751 | -101.36575 | 37933 ft | 439 kts | 313° |
| 2026-04-16 03:21 | 37.23192 | -101.41802 | 37941 ft | 437 kts | 313° |
| 2026-04-16 03:21 | 37.27617 | -101.47019 | 37961 ft | 437 kts | 313° |
| 2026-04-16 03:22 | 37.32050 | -101.52254 | 37966 ft | 438 kts | 313° |
| 2026-04-16 03:22 | 37.36453 | -101.57463 | 37970 ft | 436 kts | 313° |
| 2026-04-16 03:23 | 37.40866 | -101.62691 | 37966 ft | 435 kts | 313° |
| 2026-04-16 03:23 | 37.45259 | -101.67906 | 37964 ft | 436 kts | 313° |
| 2026-04-16 03:24 | 37.49678 | -101.73160 | 37945 ft | 434 kts | 313° |
| 2026-04-16 03:24 | 37.54075 | -101.78400 | 37933 ft | 435 kts | 313° |
| 2026-04-16 03:25 | 37.58466 | -101.83639 | 37936 ft | 434 kts | 313° |
| 2026-04-16 03:25 | 37.62866 | -101.88898 | 37958 ft | 435 kts | 313° |
| 2026-04-16 03:26 | 37.67259 | -101.94158 | 37958 ft | 434 kts | 313° |
| 2026-04-16 03:26 | 37.71656 | -101.99431 | 37968 ft | 436 kts | 313° |
| 2026-04-16 03:27 | 37.76049 | -102.04707 | 37963 ft | 434 kts | 314° |
| 2026-04-16 03:27 | 37.80442 | -102.09994 | 37972 ft | 433 kts | 314° |
| 2026-04-16 03:28 | 37.84774 | -102.15279 | 37955 ft | 432 kts | 312° |
| 2026-04-16 03:28 | 37.88924 | -102.20824 | 37951 ft | 433 kts | 310° |
| 2026-04-16 03:29 | 37.92989 | -102.26436 | 37956 ft | 431 kts | 310° |
| 2026-04-16 03:29 | 37.97057 | -102.32034 | 37946 ft | 432 kts | 311° |
| 2026-04-16 03:30 | 38.01164 | -102.37655 | 37952 ft | 432 kts | 311° |
| 2026-04-16 03:30 | 38.05263 | -102.43249 | 37936 ft | 429 kts | 311° |
| 2026-04-16 03:31 | 38.09324 | -102.48792 | 37934 ft | 429 kts | 311° |
| 2026-04-16 03:31 | 38.13401 | -102.54363 | 37966 ft | 429 kts | 312° |
| 2026-04-16 03:32 | 38.17454 | -102.59909 | 37960 ft | 428 kts | 311° |
| 2026-04-16 03:34 | 38.33746 | -102.82307 | 37997 ft | 426 kts | 311° |
| 2026-04-16 03:34 | 38.37778 | -102.87873 | 37989 ft | 426 kts | 311° |
| 2026-04-16 03:35 | 38.41871 | -102.93535 | 37994 ft | 426 kts | 312° |
| 2026-04-16 03:35 | 38.45907 | -102.99130 | 37992 ft | 426 kts | 312° |
| 2026-04-16 03:36 | 38.49950 | -103.04742 | 38013 ft | 426 kts | 312° |
| 2026-04-16 03:36 | 38.53969 | -103.10331 | 38005 ft | 425 kts | 312° |
| 2026-04-16 03:37 | 38.58015 | -103.15967 | 38014 ft | 426 kts | 312° |
| 2026-04-16 03:37 | 38.61995 | -103.21522 | 37592 ft | 414 kts | 312° |
| 2026-04-16 03:37 | 38.63931 | -103.24226 | 37133 ft | 413 kts | 312° |
| 2026-04-16 03:38 | 38.65891 | -103.26968 | 36564 ft | 413 kts | 313° |
| 2026-04-16 03:38 | 38.67837 | -103.29693 | 36010 ft | 413 kts | 313° |
| 2026-04-16 03:38 | 38.69786 | -103.32426 | 35439 ft | 415 kts | 313° |
| 2026-04-16 03:38 | 38.71757 | -103.35191 | 34781 ft | 417 kts | 314° |
| 2026-04-16 03:39 | 38.73710 | -103.37932 | 34072 ft | 420 kts | 314° |
| 2026-04-16 03:39 | 38.75688 | -103.40709 | 33308 ft | 423 kts | 314° |
| 2026-04-16 03:39 | 38.77686 | -103.43515 | 32551 ft | 425 kts | 314° |
| 2026-04-16 03:39 | 38.79682 | -103.46323 | 31909 ft | 423 kts | 314° |
| 2026-04-16 03:40 | 38.81678 | -103.49136 | 31358 ft | 420 kts | 313° |
| 2026-04-16 03:40 | 38.83644 | -103.51911 | 30791 ft | 417 kts | 313° |
| 2026-04-16 03:40 | 38.85587 | -103.54660 | 30224 ft | 415 kts | 313° |
| 2026-04-16 03:40 | 38.87514 | -103.57389 | 29642 ft | 412 kts | 313° |
| 2026-04-16 03:41 | 38.89435 | -103.60112 | 29069 ft | 410 kts | 313° |
| 2026-04-16 03:41 | 38.91347 | -103.62825 | 28498 ft | 407 kts | 313° |
| 2026-04-16 03:41 | 38.93239 | -103.65512 | 27929 ft | 404 kts | 312° |
| 2026-04-16 03:41 | 38.95100 | -103.68156 | 27377 ft | 402 kts | 312° |
| 2026-04-16 03:42 | 38.96985 | -103.70836 | 26804 ft | 399 kts | 312° |
| 2026-04-16 03:42 | 38.98830 | -103.73462 | 26250 ft | 397 kts | 312° |
| 2026-04-16 03:42 | 39.00677 | -103.76094 | 25684 ft | 394 kts | 312° |
| 2026-04-16 03:42 | 39.02503 | -103.78696 | 25125 ft | 392 kts | 312° |
| 2026-04-16 03:43 | 39.04318 | -103.81284 | 24556 ft | 389 kts | 312° |
| 2026-04-16 03:43 | 39.06123 | -103.83862 | 23988 ft | 386 kts | 312° |
| 2026-04-16 03:43 | 39.07927 | -103.86440 | 23431 ft | 383 kts | 312° |
| 2026-04-16 03:43 | 39.09699 | -103.88975 | 22881 ft | 380 kts | 312° |
| 2026-04-16 03:44 | 39.11462 | -103.91498 | 22336 ft | 377 kts | 311° |
| 2026-04-16 03:44 | 39.13203 | -103.93995 | 21980 ft | 369 kts | 311° |
| 2026-04-16 03:44 | 39.14898 | -103.96441 | 21456 ft | 367 kts | 311° |
| 2026-04-16 03:44 | 39.16602 | -103.98915 | 20912 ft | 365 kts | 311° |
| 2026-04-16 03:45 | 39.18262 | -104.01331 | 20382 ft | 363 kts | 311° |
| 2026-04-16 03:45 | 39.19919 | -104.03746 | 19858 ft | 360 kts | 311° |
| 2026-04-16 03:45 | 39.21587 | -104.06177 | 19334 ft | 358 kts | 311° |
| 2026-04-16 03:45 | 39.23207 | -104.08540 | 18815 ft | 355 kts | 311° |
| 2026-04-16 03:46 | 39.24854 | -104.10943 | 18294 ft | 352 kts | 311° |
| 2026-04-16 03:46 | 39.26478 | -104.13315 | 17788 ft | 349 kts | 311° |
| 2026-04-16 03:46 | 39.28054 | -104.15617 | 17495 ft | 340 kts | 310° |
| 2026-04-16 03:46 | 39.29484 | -104.18014 | 17293 ft | 329 kts | 302° |
| 2026-04-16 03:47 | 39.30453 | -104.20599 | 16948 ft | 323 kts | 288° |
| 2026-04-16 03:47 | 39.31036 | -104.23415 | 16485 ft | 321 kts | 282° |
| 2026-04-16 03:47 | 39.31472 | -104.26209 | 16064 ft | 319 kts | 281° |
| 2026-04-16 03:47 | 39.31879 | -104.29031 | 15641 ft | 317 kts | 280° |
| 2026-04-16 03:48 | 39.32288 | -104.31826 | 15226 ft | 315 kts | 281° |
| 2026-04-16 03:48 | 39.32707 | -104.34578 | 14815 ft | 313 kts | 281° |
| 2026-04-16 03:48 | 39.33131 | -104.37298 | 14411 ft | 311 kts | 281° |
| 2026-04-16 03:48 | 39.33561 | -104.40012 | 14053 ft | 307 kts | 281° |
| 2026-04-16 03:49 | 39.33985 | -104.42690 | 13886 ft | 297 kts | 281° |
| 2026-04-16 03:49 | 39.34389 | -104.45239 | 13649 ft | 290 kts | 280° |
| 2026-04-16 03:49 | 39.34792 | -104.47800 | 13266 ft | 289 kts | 280° |
| 2026-04-16 03:49 | 39.35189 | -104.50339 | 12917 ft | 287 kts | 280° |
| 2026-04-16 03:50 | 39.35578 | -104.52832 | 12572 ft | 285 kts | 280° |
| 2026-04-16 03:50 | 39.35973 | -104.55360 | 12287 ft | 281 kts | 281° |
| 2026-04-16 03:50 | 39.36359 | -104.57783 | 12186 ft | 270 kts | 282° |
| 2026-04-16 03:50 | 39.36923 | -104.60009 | 12129 ft | 258 kts | 294° |
| 2026-04-16 03:51 | 39.37783 | -104.61989 | 12132 ft | 245 kts | 301° |
| 2026-04-16 03:51 | 39.38791 | -104.63688 | 12129 ft | 232 kts | 316° |
| 2026-04-16 03:51 | 39.40084 | -104.64842 | 12105 ft | 219 kts | 330° |
| 2026-04-16 03:51 | 39.41450 | -104.65628 | 12095 ft | 215 kts | 338° |
| 2026-04-16 03:52 | 39.42905 | -104.66135 | 12081 ft | 219 kts | 347° |
| 2026-04-16 03:52 | 39.44431 | -104.66376 | 12079 ft | 219 kts | 353° |
| 2026-04-16 03:52 | 39.45950 | -104.66457 | 12056 ft | 220 kts | 356° |
| 2026-04-16 03:52 | 39.47497 | -104.66469 | 12052 ft | 220 kts | 357° |
| 2026-04-16 03:53 | 39.49026 | -104.66460 | 12043 ft | 221 kts | 357° |
| 2026-04-16 03:53 | 39.50562 | -104.66443 | 11839 ft | 217 kts | 357° |
| 2026-04-16 03:53 | 39.52082 | -104.66428 | 11464 ft | 219 kts | 357° |
| 2026-04-16 03:53 | 39.53589 | -104.66411 | 11166 ft | 217 kts | 357° |
| 2026-04-16 03:54 | 39.55107 | -104.66391 | 10857 ft | 216 kts | 358° |
| 2026-04-16 03:54 | 39.56594 | -104.66371 | 10564 ft | 213 kts | 357° |
| 2026-04-16 03:54 | 39.58070 | -104.66353 | 10257 ft | 211 kts | 358° |
| 2026-04-16 03:54 | 39.59555 | -104.66336 | 9963 ft | 212 kts | 358° |
| 2026-04-16 03:55 | 39.61024 | -104.66318 | 9668 ft | 212 kts | 357° |
| 2026-04-16 03:55 | 39.62497 | -104.66300 | 9373 ft | 210 kts | 358° |
| 2026-04-16 03:55 | 39.63948 | -104.66283 | 9084 ft | 207 kts | 358° |
| 2026-04-16 03:55 | 39.65381 | -104.66265 | 8804 ft | 204 kts | 358° |
| 2026-04-16 03:56 | 39.66789 | -104.66248 | 8525 ft | 201 kts | 358° |
| 2026-04-16 03:56 | 39.68185 | -104.66232 | 8253 ft | 198 kts | 358° |
| 2026-04-16 03:56 | 39.69549 | -104.66215 | 7986 ft | 195 kts | 358° |
| 2026-04-16 03:56 | 39.70902 | -104.66199 | 7723 ft | 192 kts | 358° |
| 2026-04-16 03:57 | 39.72223 | -104.66183 | 7470 ft | 189 kts | 358° |
| 2026-04-16 03:57 | 39.73534 | -104.66166 | 7219 ft | 185 kts | 358° |
| 2026-04-16 03:57 | 39.74802 | -104.66151 | 6998 ft | 176 kts | 358° |
| 2026-04-16 03:57 | 39.76011 | -104.66138 | 6779 ft | 176 kts | 358° |
| 2026-04-16 03:58 | 39.77199 | -104.66123 | 6494 ft | 166 kts | 358° |
| 2026-04-16 03:58 | 39.78331 | -104.66109 | 6313 ft | 165 kts | 358° |
| 2026-04-16 03:58 | 39.79499 | -104.66102 | 6136 ft | 168 kts | 358° |
| 2026-04-16 03:58 | 39.80656 | -104.66079 | 5909 ft | 163 kts | 358° |
| 2026-04-16 03:59 | 39.81796 | -104.66068 | 5690 ft | 166 kts | 358° |
| 2026-04-16 03:59 | 39.82957 | -104.66056 | 5465 ft | 165 kts | 358° |
| 2026-04-16 03:59 | 39.84038 | -104.66042 | 5410 ft | 130 kts | 0° |
| 2026-04-16 03:59 | 39.84713 | -104.66034 | 5403 ft | 65 kts | 360° |
| 2026-04-16 04:00 | 39.85048 | -104.66046 | 5407 ft | 42 kts | 351° |
| 2026-04-16 04:00 | 39.85243 | -104.66120 | 5413 ft | 17 kts | 331° |
| 2026-04-16 04:00 | 39.85334 | -104.66185 | 5415 ft | 11 kts | 330° |
| 2026-04-16 04:00 | 39.85405 | -104.66228 | 5418 ft | 12 kts | 346° |
| 2026-04-16 04:01 | 39.85515 | -104.66238 | 5422 ft | 18 kts | 3° |
| 2026-04-16 04:01 | 39.85653 | -104.66237 | 5426 ft | 18 kts | 359° |
| 2026-04-16 04:01 | 39.85778 | -104.66238 | 5426 ft | 17 kts | 359° |
| 2026-04-16 04:01 | 39.85897 | -104.66234 | 5425 ft | 16 kts | 2° |
| 2026-04-16 04:02 | 39.86015 | -104.66232 | 5422 ft | 17 kts | 2° |
| 2026-04-16 04:02 | 39.86111 | -104.66238 | 5421 ft | 5 kts | 298° |
| 2026-04-16 04:02 | 39.86105 | -104.66315 | 5422 ft | 11 kts | 269° |
| 2026-04-16 04:02 | 39.86107 | -104.66431 | 5422 ft | 15 kts | 271° |
| 2026-04-16 04:03 | 39.86132 | -104.66602 | 5420 ft | 20 kts | 282° |
| 2026-04-16 04:03 | 39.86127 | -104.66783 | 5417 ft | 20 kts | 269° |
| 2026-04-16 04:03 | 39.86130 | -104.66980 | 5411 ft | 22 kts | 270° |
| 2026-04-16 04:03 | 39.86131 | -104.67193 | 5402 ft | 24 kts | 270° |
| 2026-04-16 04:04 | 39.86132 | -104.67396 | 5390 ft | 21 kts | 270° |
| 2026-04-16 04:04 | 39.86134 | -104.67587 | 5379 ft | 18 kts | 270° |
| 2026-04-16 04:04 | 39.86135 | -104.67767 | 5369 ft | 21 kts | 270° |
| 2026-04-16 04:04 | 39.86136 | -104.67960 | 5358 ft | 20 kts | 270° |
| 2026-04-16 04:05 | 39.86138 | -104.68132 | 5345 ft | 18 kts | 269° |
| 2026-04-16 04:05 | 39.86036 | -104.68195 | 5345 ft | 18 kts | 182° |
| 2026-04-16 04:05 | 39.85891 | -104.68198 | 5348 ft | 21 kts | 180° |
| 2026-04-16 04:05 | 39.85737 | -104.68203 | 5347 ft | 22 kts | 177° |
| 2026-04-16 04:06 | 39.85670 | -104.68076 | 5355 ft | 17 kts | 88° |
| 2026-04-16 04:06 | 39.85704 | -104.68000 | 5361 ft | 9 kts | 355° |
| 2026-04-16 04:06 | 39.85778 | -104.68007 | 5360 ft | 11 kts | 6° |
| 2026-04-16 04:06 | 39.85815 | -104.68008 | 5360 ft | 0 kts | 359° |